sensor_id;sensor_type;location;lat;lon;timestamp;P1;durP1;ratioP1;P2;durP2;ratioP2
28335;SDS011;15592;53.656;7.276;2023-04-01T00:02:00;12.93;;;9.10;;
28335;SDS011;15592;53.656;7.276;2023-04-01T00:04:25;10.18;;;7.65;;
28335;SDS011;15592;53.656;7.276;2023-04-01T00:06:51;11.30;;;7.97;;
28335;SDS011;15592;53.656;7.276;2023-04-01T00:09:17;12.02;;;7.82;;
28335;SDS011;15592;53.656;7.276;2023-04-01T00:11:43;13.98;;;8.02;;
28335;SDS011;15592;53.656;7.276;2023-04-01T00:14:10;12.80;;;8.63;;
28335;SDS011;15592;53.656;7.276;2023-04-01T00:16:36;13.68;;;9.18;;
28335;SDS011;15592;53.656;7.276;2023-04-01T00:19:02;13.90;;;9.23;;
28335;SDS011;15592;53.656;7.276;2023-04-01T00:21:28;14.93;;;10.32;;
28335;SDS011;15592;53.656;7.276;2023-04-01T00:23:54;14.55;;;10.20;;
28335;SDS011;15592;53.656;7.276;2023-04-01T00:26:19;15.40;;;10.75;;
28335;SDS011;15592;53.656;7.276;2023-04-01T00:28:46;14.23;;;9.80;;
28335;SDS011;15592;53.656;7.276;2023-04-01T00:31:12;16.27;;;10.18;;
28335;SDS011;15592;53.656;7.276;2023-04-01T00:33:39;17.08;;;10.02;;
28335;SDS011;15592;53.656;7.276;2023-04-01T00:36:06;14.85;;;10.68;;
28335;SDS011;15592;53.656;7.276;2023-04-01T00:38:40;14.07;;;10.65;;
28335;SDS011;15592;53.656;7.276;2023-04-01T00:41:06;15.45;;;10.80;;
28335;SDS011;15592;53.656;7.276;2023-04-01T00:43:32;17.98;;;12.07;;
28335;SDS011;15592;53.656;7.276;2023-04-01T00:45:59;17.17;;;11.52;;
28335;SDS011;15592;53.656;7.276;2023-04-01T00:48:26;21.08;;;12.15;;
28335;SDS011;15592;53.656;7.276;2023-04-01T00:51:17;19.13;;;12.77;;
28335;SDS011;15592;53.656;7.276;2023-04-01T00:53:47;17.52;;;12.25;;
28335;SDS011;15592;53.656;7.276;2023-04-01T00:56:20;17.90;;;11.75;;
28335;SDS011;15592;53.656;7.276;2023-04-01T00:58:54;20.65;;;12.30;;
28335;SDS011;15592;53.656;7.276;2023-04-01T01:01:24;16.75;;;12.05;;
28335;SDS011;15592;53.656;7.276;2023-04-01T01:03:50;18.65;;;12.63;;
28335;SDS011;15592;53.656;7.276;2023-04-01T01:06:22;19.55;;;13.13;;
28335;SDS011;15592;53.656;7.276;2023-04-01T01:17:12;16.90;;;11.88;;
28335;SDS011;15592;53.656;7.276;2023-04-01T01:30:35;21.23;;;12.95;;
28335;SDS011;15592;53.656;7.276;2023-04-01T01:36:12;23.10;;;14.55;;
28335;SDS011;15592;53.656;7.276;2023-04-01T01:38:39;20.67;;;13.23;;
28335;SDS011;15592;53.656;7.276;2023-04-01T01:41:06;19.75;;;13.93;;
28335;SDS011;15592;53.656;7.276;2023-04-01T01:43:35;20.67;;;13.48;;
28335;SDS011;15592;53.656;7.276;2023-04-01T01:46:06;21.27;;;14.10;;
28335;SDS011;15592;53.656;7.276;2023-04-01T01:48:35;22.15;;;13.57;;
28335;SDS011;15592;53.656;7.276;2023-04-01T01:51:03;18.17;;;12.90;;
28335;SDS011;15592;53.656;7.276;2023-04-01T01:53:33;20.13;;;13.55;;
28335;SDS011;15592;53.656;7.276;2023-04-01T01:55:58;20.88;;;13.57;;
28335;SDS011;15592;53.656;7.276;2023-04-01T02:01:15;22.73;;;13.98;;
28335;SDS011;15592;53.656;7.276;2023-04-01T02:03:50;20.92;;;12.98;;
28335;SDS011;15592;53.656;7.276;2023-04-01T02:06:18;25.25;;;13.93;;
28335;SDS011;15592;53.656;7.276;2023-04-01T02:14:10;22.00;;;13.07;;
28335;SDS011;15592;53.656;7.276;2023-04-01T02:16:45;24.70;;;15.30;;
28335;SDS011;15592;53.656;7.276;2023-04-01T02:19:16;24.80;;;15.55;;
28335;SDS011;15592;53.656;7.276;2023-04-01T02:21:48;24.15;;;15.00;;
28335;SDS011;15592;53.656;7.276;2023-04-01T02:24:17;26.88;;;15.40;;
28335;SDS011;15592;53.656;7.276;2023-04-01T02:26:46;24.90;;;15.57;;
28335;SDS011;15592;53.656;7.276;2023-04-01T02:29:12;26.92;;;15.90;;
28335;SDS011;15592;53.656;7.276;2023-04-01T02:31:38;26.33;;;16.13;;
28335;SDS011;15592;53.656;7.276;2023-04-01T02:34:05;29.15;;;17.80;;
28335;SDS011;15592;53.656;7.276;2023-04-01T02:36:31;28.67;;;16.90;;
28335;SDS011;15592;53.656;7.276;2023-04-01T02:38:57;28.85;;;17.10;;
28335;SDS011;15592;53.656;7.276;2023-04-01T02:41:27;33.83;;;19.60;;
28335;SDS011;15592;53.656;7.276;2023-04-01T02:43:53;32.45;;;19.10;;
28335;SDS011;15592;53.656;7.276;2023-04-01T02:46:18;34.15;;;20.40;;
28335;SDS011;15592;53.656;7.276;2023-04-01T02:48:44;33.22;;;19.90;;
28335;SDS011;15592;53.656;7.276;2023-04-01T02:51:09;30.92;;;19.42;;
28335;SDS011;15592;53.656;7.276;2023-04-01T02:53:35;32.20;;;18.95;;
28335;SDS011;15592;53.656;7.276;2023-04-01T02:56:01;36.00;;;20.90;;
28335;SDS011;15592;53.656;7.276;2023-04-01T02:58:26;36.33;;;21.45;;
28335;SDS011;15592;53.656;7.276;2023-04-01T03:00:52;37.15;;;21.27;;
28335;SDS011;15592;53.656;7.276;2023-04-01T03:03:17;38.42;;;21.38;;
28335;SDS011;15592;53.656;7.276;2023-04-01T03:05:43;36.90;;;21.67;;
28335;SDS011;15592;53.656;7.276;2023-04-01T03:08:08;37.75;;;22.40;;
28335;SDS011;15592;53.656;7.276;2023-04-01T03:10:35;42.40;;;23.13;;
28335;SDS011;15592;53.656;7.276;2023-04-01T03:13:01;42.97;;;23.33;;
28335;SDS011;15592;53.656;7.276;2023-04-01T03:15:26;42.30;;;23.50;;
28335;SDS011;15592;53.656;7.276;2023-04-01T03:17:52;39.95;;;22.80;;
28335;SDS011;15592;53.656;7.276;2023-04-01T03:20:17;44.03;;;23.27;;
28335;SDS011;15592;53.656;7.276;2023-04-01T03:22:44;43.97;;;22.95;;
28335;SDS011;15592;53.656;7.276;2023-04-01T03:25:10;38.35;;;22.15;;
28335;SDS011;15592;53.656;7.276;2023-04-01T03:27:36;42.25;;;23.58;;
28335;SDS011;15592;53.656;7.276;2023-04-01T03:30:02;41.60;;;21.05;;
28335;SDS011;15592;53.656;7.276;2023-04-01T03:32:29;39.90;;;21.77;;
28335;SDS011;15592;53.656;7.276;2023-04-01T03:34:55;39.65;;;21.67;;
28335;SDS011;15592;53.656;7.276;2023-04-01T03:37:21;40.13;;;21.70;;
28335;SDS011;15592;53.656;7.276;2023-04-01T03:39:47;43.17;;;22.48;;
28335;SDS011;15592;53.656;7.276;2023-04-01T03:42:12;44.45;;;21.42;;
28335;SDS011;15592;53.656;7.276;2023-04-01T03:44:38;43.90;;;23.02;;
28335;SDS011;15592;53.656;7.276;2023-04-01T03:47:04;42.95;;;21.67;;
28335;SDS011;15592;53.656;7.276;2023-04-01T03:49:29;45.08;;;22.65;;
28335;SDS011;15592;53.656;7.276;2023-04-01T03:51:57;45.10;;;23.23;;
28335;SDS011;15592;53.656;7.276;2023-04-01T03:54:22;43.72;;;21.92;;
28335;SDS011;15592;53.656;7.276;2023-04-01T03:56:48;45.50;;;23.27;;
28335;SDS011;15592;53.656;7.276;2023-04-01T03:59:14;44.38;;;23.35;;
28335;SDS011;15592;53.656;7.276;2023-04-01T04:01:40;45.50;;;23.20;;
28335;SDS011;15592;53.656;7.276;2023-04-01T04:04:05;43.63;;;22.65;;
28335;SDS011;15592;53.656;7.276;2023-04-01T04:06:32;44.00;;;22.02;;
28335;SDS011;15592;53.656;7.276;2023-04-01T04:08:58;43.00;;;23.50;;
28335;SDS011;15592;53.656;7.276;2023-04-01T04:11:24;47.60;;;24.60;;
28335;SDS011;15592;53.656;7.276;2023-04-01T04:13:50;47.10;;;23.88;;
28335;SDS011;15592;53.656;7.276;2023-04-01T04:16:17;55.30;;;26.02;;
28335;SDS011;15592;53.656;7.276;2023-04-01T04:18:43;57.63;;;26.85;;
28335;SDS011;15592;53.656;7.276;2023-04-01T04:21:11;65.57;;;28.80;;
28335;SDS011;15592;53.656;7.276;2023-04-01T04:23:38;67.43;;;30.50;;
28335;SDS011;15592;53.656;7.276;2023-04-01T04:26:05;67.15;;;29.73;;
28335;SDS011;15592;53.656;7.276;2023-04-01T04:28:32;64.55;;;29.77;;
28335;SDS011;15592;53.656;7.276;2023-04-01T04:30:58;65.57;;;29.27;;
28335;SDS011;15592;53.656;7.276;2023-04-01T04:33:24;60.97;;;28.35;;
28335;SDS011;15592;53.656;7.276;2023-04-01T04:35:51;64.90;;;29.02;;
28335;SDS011;15592;53.656;7.276;2023-04-01T04:38:19;55.90;;;26.08;;
28335;SDS011;15592;53.656;7.276;2023-04-01T04:40:45;58.67;;;27.10;;
28335;SDS011;15592;53.656;7.276;2023-04-01T04:43:11;55.08;;;25.02;;
28335;SDS011;15592;53.656;7.276;2023-04-01T04:45:39;53.22;;;25.05;;
28335;SDS011;15592;53.656;7.276;2023-04-01T04:48:06;58.22;;;25.75;;
28335;SDS011;15592;53.656;7.276;2023-04-01T04:50:42;58.05;;;25.95;;
28335;SDS011;15592;53.656;7.276;2023-04-01T04:53:12;59.13;;;26.45;;
28335;SDS011;15592;53.656;7.276;2023-04-01T04:55:42;54.50;;;24.77;;
28335;SDS011;15592;53.656;7.276;2023-04-01T04:58:27;58.53;;;24.85;;
28335;SDS011;15592;53.656;7.276;2023-04-01T05:00:52;51.90;;;23.98;;
28335;SDS011;15592;53.656;7.276;2023-04-01T05:03:18;58.10;;;23.63;;
28335;SDS011;15592;53.656;7.276;2023-04-01T05:05:50;54.03;;;23.52;;
28335;SDS011;15592;53.656;7.276;2023-04-01T05:08:18;51.65;;;23.23;;
28335;SDS011;15592;53.656;7.276;2023-04-01T05:10:43;52.95;;;23.17;;
28335;SDS011;15592;53.656;7.276;2023-04-01T05:13:09;53.95;;;23.40;;
28335;SDS011;15592;53.656;7.276;2023-04-01T05:15:35;51.25;;;21.42;;
28335;SDS011;15592;53.656;7.276;2023-04-01T05:18:01;50.85;;;23.30;;
28335;SDS011;15592;53.656;7.276;2023-04-01T05:20:26;53.05;;;23.60;;
28335;SDS011;15592;53.656;7.276;2023-04-01T05:22:55;47.22;;;22.05;;
28335;SDS011;15592;53.656;7.276;2023-04-01T05:25:36;43.35;;;19.52;;
28335;SDS011;15592;53.656;7.276;2023-04-01T05:28:03;41.42;;;19.83;;
28335;SDS011;15592;53.656;7.276;2023-04-01T05:30:28;39.63;;;18.77;;
28335;SDS011;15592;53.656;7.276;2023-04-01T05:32:54;45.47;;;20.50;;
28335;SDS011;15592;53.656;7.276;2023-04-01T05:35:20;34.45;;;17.55;;
28335;SDS011;15592;53.656;7.276;2023-04-01T05:38:01;33.65;;;16.92;;
28335;SDS011;15592;53.656;7.276;2023-04-01T05:40:27;39.90;;;19.33;;
28335;SDS011;15592;53.656;7.276;2023-04-01T05:45:32;45.88;;;20.80;;
28335;SDS011;15592;53.656;7.276;2023-04-01T05:47:58;54.58;;;22.10;;
28335;SDS011;15592;53.656;7.276;2023-04-01T05:50:24;52.53;;;21.52;;
28335;SDS011;15592;53.656;7.276;2023-04-01T05:52:50;54.03;;;22.13;;
28335;SDS011;15592;53.656;7.276;2023-04-01T05:55:18;47.33;;;18.42;;
28335;SDS011;15592;53.656;7.276;2023-04-01T05:58:09;35.00;;;14.35;;
28335;SDS011;15592;53.656;7.276;2023-04-01T06:00:35;30.33;;;11.98;;
28335;SDS011;15592;53.656;7.276;2023-04-01T06:03:01;25.77;;;10.40;;
28335;SDS011;15592;53.656;7.276;2023-04-01T06:05:27;20.60;;;8.23;;
28335;SDS011;15592;53.656;7.276;2023-04-01T06:07:57;19.10;;;8.85;;
28335;SDS011;15592;53.656;7.276;2023-04-01T06:22:22;15.93;;;7.13;;
28335;SDS011;15592;53.656;7.276;2023-04-01T06:25:04;15.60;;;6.60;;
28335;SDS011;15592;53.656;7.276;2023-04-01T06:28:01;18.48;;;6.32;;
28335;SDS011;15592;53.656;7.276;2023-04-01T06:37:05;12.43;;;5.95;;
28335;SDS011;15592;53.656;7.276;2023-04-01T06:45:14;18.63;;;7.20;;
28335;SDS011;15592;53.656;7.276;2023-04-01T06:53:43;20.27;;;8.30;;
28335;SDS011;15592;53.656;7.276;2023-04-01T06:56:34;17.08;;;7.25;;
28335;SDS011;15592;53.656;7.276;2023-04-01T06:59:09;27.27;;;8.15;;
28335;SDS011;15592;53.656;7.276;2023-04-01T07:01:42;14.13;;;6.10;;
28335;SDS011;15592;53.656;7.276;2023-04-01T07:06:39;16.58;;;5.88;;
28335;SDS011;15592;53.656;7.276;2023-04-01T07:09:20;14.27;;;6.57;;
28335;SDS011;15592;53.656;7.276;2023-04-01T07:11:50;15.63;;;7.00;;
28335;SDS011;15592;53.656;7.276;2023-04-01T07:16:51;16.10;;;6.25;;
28335;SDS011;15592;53.656;7.276;2023-04-01T07:22:09;10.55;;;5.18;;
28335;SDS011;15592;53.656;7.276;2023-04-01T07:24:41;12.18;;;5.30;;
28335;SDS011;15592;53.656;7.276;2023-04-01T07:27:11;12.65;;;4.78;;
28335;SDS011;15592;53.656;7.276;2023-04-01T07:29:38;10.80;;;4.50;;
28335;SDS011;15592;53.656;7.276;2023-04-01T07:32:07;14.98;;;4.90;;
28335;SDS011;15592;53.656;7.276;2023-04-01T07:37:31;17.45;;;5.57;;
28335;SDS011;15592;53.656;7.276;2023-04-01T07:43:13;10.93;;;5.63;;
28335;SDS011;15592;53.656;7.276;2023-04-01T07:45:52;15.02;;;6.53;;
28335;SDS011;15592;53.656;7.276;2023-04-01T07:56:18;12.55;;;4.85;;
28335;SDS011;15592;53.656;7.276;2023-04-01T08:06:46;14.52;;;4.93;;
28335;SDS011;15592;53.656;7.276;2023-04-01T08:15:05;11.57;;;3.55;;
28335;SDS011;15592;53.656;7.276;2023-04-01T08:25:35;11.98;;;3.90;;
28335;SDS011;15592;53.656;7.276;2023-04-01T08:29:07;10.77;;;4.30;;
28335;SDS011;15592;53.656;7.276;2023-04-01T08:31:14;11.57;;;3.80;;
28335;SDS011;15592;53.656;7.276;2023-04-01T08:34:26;16.63;;;4.00;;
28335;SDS011;15592;53.656;7.276;2023-04-01T08:37:20;9.25;;;3.42;;
28335;SDS011;15592;53.656;7.276;2023-04-01T08:39:51;7.72;;;3.50;;
28335;SDS011;15592;53.656;7.276;2023-04-01T08:45:35;6.30;;;2.90;;
28335;SDS011;15592;53.656;7.276;2023-04-01T08:48:23;13.35;;;3.20;;
28335;SDS011;15592;53.656;7.276;2023-04-01T08:51:15;8.18;;;2.78;;
28335;SDS011;15592;53.656;7.276;2023-04-01T08:56:40;12.27;;;3.40;;
28335;SDS011;15592;53.656;7.276;2023-04-01T08:59:16;12.68;;;3.00;;
28335;SDS011;15592;53.656;7.276;2023-04-01T09:15:20;7.15;;;2.63;;
28335;SDS011;15592;53.656;7.276;2023-04-01T09:18:34;6.70;;;2.72;;
28335;SDS011;15592;53.656;7.276;2023-04-01T09:35:07;7.90;;;2.17;;
28335;SDS011;15592;53.656;7.276;2023-04-01T09:40:47;13.63;;;2.55;;
28335;SDS011;15592;53.656;7.276;2023-04-01T09:46:40;8.90;;;1.98;;
28335;SDS011;15592;53.656;7.276;2023-04-01T10:20:59;6.78;;;2.20;;
28335;SDS011;15592;53.656;7.276;2023-04-01T10:37:15;4.70;;;1.88;;
28335;SDS011;15592;53.656;7.276;2023-04-01T10:54:45;11.73;;;2.72;;
28335;SDS011;15592;53.656;7.276;2023-04-01T11:32:43;8.88;;;2.72;;
28335;SDS011;15592;53.656;7.276;2023-04-01T11:38:57;5.13;;;2.30;;
28335;SDS011;15592;53.656;7.276;2023-04-01T11:48:42;5.75;;;2.10;;
28335;SDS011;15592;53.656;7.276;2023-04-01T11:54:58;5.75;;;1.85;;
28335;SDS011;15592;53.656;7.276;2023-04-01T12:00:31;3.45;;;2.20;;
28335;SDS011;15592;53.656;7.276;2023-04-01T12:35:24;6.53;;;2.30;;
28335;SDS011;15592;53.656;7.276;2023-04-01T12:55:52;4.70;;;3.00;;
28335;SDS011;15592;53.656;7.276;2023-04-01T12:58:44;8.13;;;3.45;;
28335;SDS011;15592;53.656;7.276;2023-04-01T13:13:45;8.23;;;3.55;;
28335;SDS011;15592;53.656;7.276;2023-04-01T13:16:23;5.95;;;3.50;;
28335;SDS011;15592;53.656;7.276;2023-04-01T13:21:51;8.48;;;3.70;;
28335;SDS011;15592;53.656;7.276;2023-04-01T13:30:54;9.88;;;4.40;;
28335;SDS011;15592;53.656;7.276;2023-04-01T13:34:13;11.70;;;4.43;;
28335;SDS011;15592;53.656;7.276;2023-04-01T13:36:20;11.48;;;4.50;;
28335;SDS011;15592;53.656;7.276;2023-04-01T14:33:26;15.02;;;6.93;;
28335;SDS011;15592;53.656;7.276;2023-04-01T15:06:42;16.00;;;7.40;;
28335;SDS011;15592;53.656;7.276;2023-04-01T15:23:19;13.07;;;6.68;;
28335;SDS011;15592;53.656;7.276;2023-04-01T15:26:07;16.93;;;7.93;;
28335;SDS011;15592;53.656;7.276;2023-04-01T15:34:38;15.02;;;6.95;;
28335;SDS011;15592;53.656;7.276;2023-04-01T15:42:55;15.82;;;7.00;;
28335;SDS011;15592;53.656;7.276;2023-04-01T15:48:02;18.98;;;8.13;;
28335;SDS011;15592;53.656;7.276;2023-04-01T16:04:35;16.42;;;6.97;;
28335;SDS011;15592;53.656;7.276;2023-04-01T16:07:07;16.80;;;7.30;;
28335;SDS011;15592;53.656;7.276;2023-04-01T16:20:47;17.98;;;7.53;;
28335;SDS011;15592;53.656;7.276;2023-04-01T16:23:40;13.45;;;7.20;;
28335;SDS011;15592;53.656;7.276;2023-04-01T16:26:23;14.90;;;7.18;;
28335;SDS011;15592;53.656;7.276;2023-04-01T16:32:17;17.98;;;7.00;;
28335;SDS011;15592;53.656;7.276;2023-04-01T16:35:16;14.27;;;7.00;;
28335;SDS011;15592;53.656;7.276;2023-04-01T16:38:03;16.20;;;6.82;;
28335;SDS011;15592;53.656;7.276;2023-04-01T16:41:17;15.10;;;6.78;;
28335;SDS011;15592;53.656;7.276;2023-04-01T16:43:52;14.57;;;7.40;;
28335;SDS011;15592;53.656;7.276;2023-04-01T17:08:43;13.85;;;6.53;;
28335;SDS011;15592;53.656;7.276;2023-04-01T17:17:45;14.07;;;5.75;;
28335;SDS011;15592;53.656;7.276;2023-04-01T17:21:10;10.70;;;6.35;;
28335;SDS011;15592;53.656;7.276;2023-04-01T17:35:30;13.98;;;6.35;;
28335;SDS011;15592;53.656;7.276;2023-04-01T17:41:16;14.50;;;6.15;;
28335;SDS011;15592;53.656;7.276;2023-04-01T17:43:55;16.42;;;6.60;;
28335;SDS011;15592;53.656;7.276;2023-04-01T17:52:00;23.77;;;7.22;;
28335;SDS011;15592;53.656;7.276;2023-04-01T18:00:03;12.07;;;5.47;;
28335;SDS011;15592;53.656;7.276;2023-04-01T18:05:46;8.98;;;5.10;;
28335;SDS011;15592;53.656;7.276;2023-04-01T18:11:25;10.70;;;5.78;;
28335;SDS011;15592;53.656;7.276;2023-04-01T18:21:54;18.80;;;5.07;;
28335;SDS011;15592;53.656;7.276;2023-04-01T18:24:41;18.77;;;5.43;;
28335;SDS011;15592;53.656;7.276;2023-04-01T18:30:02;15.63;;;5.10;;
28335;SDS011;15592;53.656;7.276;2023-04-01T18:35:17;14.18;;;5.22;;
28335;SDS011;15592;53.656;7.276;2023-04-01T18:37:51;17.05;;;5.43;;
28335;SDS011;15592;53.656;7.276;2023-04-01T18:40:35;13.63;;;4.65;;
28335;SDS011;15592;53.656;7.276;2023-04-01T18:43:14;13.13;;;4.88;;
28335;SDS011;15592;53.656;7.276;2023-04-01T18:46:19;14.85;;;4.93;;
28335;SDS011;15592;53.656;7.276;2023-04-01T18:51:49;10.48;;;4.78;;
28335;SDS011;15592;53.656;7.276;2023-04-01T18:54:26;11.23;;;3.97;;
28335;SDS011;15592;53.656;7.276;2023-04-01T18:57:16;14.75;;;4.40;;
28335;SDS011;15592;53.656;7.276;2023-04-01T19:02:28;10.77;;;4.30;;
28335;SDS011;15592;53.656;7.276;2023-04-01T19:05:09;10.55;;;3.53;;
28335;SDS011;15592;53.656;7.276;2023-04-01T19:10:17;11.05;;;3.90;;
28335;SDS011;15592;53.656;7.276;2023-04-01T19:15:47;8.23;;;3.88;;
28335;SDS011;15592;53.656;7.276;2023-04-01T19:18:39;11.20;;;3.67;;
28335;SDS011;15592;53.656;7.276;2023-04-01T19:27:06;9.50;;;4.38;;
28335;SDS011;15592;53.656;7.276;2023-04-01T19:40:55;10.63;;;4.28;;
28335;SDS011;15592;53.656;7.276;2023-04-01T19:44:15;14.03;;;4.63;;
28335;SDS011;15592;53.656;7.276;2023-04-01T19:46:44;9.30;;;3.92;;
28335;SDS011;15592;53.656;7.276;2023-04-01T20:05:33;9.82;;;3.40;;
28335;SDS011;15592;53.656;7.276;2023-04-01T20:08:07;9.60;;;3.53;;
28335;SDS011;15592;53.656;7.276;2023-04-01T20:16:04;9.35;;;3.70;;
28335;SDS011;15592;53.656;7.276;2023-04-01T20:18:45;12.23;;;3.17;;
28335;SDS011;15592;53.656;7.276;2023-04-01T20:21:42;9.05;;;2.75;;
28335;SDS011;15592;53.656;7.276;2023-04-01T20:24:20;13.00;;;3.55;;
28335;SDS011;15592;53.656;7.276;2023-04-01T20:27:10;10.20;;;2.90;;
28335;SDS011;15592;53.656;7.276;2023-04-01T20:29:56;11.10;;;3.40;;
28335;SDS011;15592;53.656;7.276;2023-04-01T20:48:24;13.50;;;3.10;;
28335;SDS011;15592;53.656;7.276;2023-04-01T20:51:03;9.57;;;3.25;;
28335;SDS011;15592;53.656;7.276;2023-04-01T20:53:42;9.85;;;3.42;;
28335;SDS011;15592;53.656;7.276;2023-04-01T20:59:09;7.82;;;3.30;;
28335;SDS011;15592;53.656;7.276;2023-04-01T21:07:20;11.80;;;3.25;;
28335;SDS011;15592;53.656;7.276;2023-04-01T21:18:36;8.68;;;2.55;;
28335;SDS011;15592;53.656;7.276;2023-04-01T21:21:17;12.15;;;3.00;;
28335;SDS011;15592;53.656;7.276;2023-04-01T21:32:46;14.13;;;3.42;;
28335;SDS011;15592;53.656;7.276;2023-04-01T21:35:48;8.15;;;2.95;;
28335;SDS011;15592;53.656;7.276;2023-04-01T21:38:36;7.40;;;2.88;;
28335;SDS011;15592;53.656;7.276;2023-04-01T21:58:53;8.30;;;2.85;;
28335;SDS011;15592;53.656;7.276;2023-04-01T22:07:29;10.65;;;3.05;;
28335;SDS011;15592;53.656;7.276;2023-04-01T22:12:53;9.38;;;3.25;;
28335;SDS011;15592;53.656;7.276;2023-04-01T22:15:40;8.43;;;3.33;;
28335;SDS011;15592;53.656;7.276;2023-04-01T22:29:10;6.38;;;2.63;;
28335;SDS011;15592;53.656;7.276;2023-04-01T22:34:54;9.73;;;3.25;;
28335;SDS011;15592;53.656;7.276;2023-04-01T22:37:52;8.60;;;3.10;;
28335;SDS011;15592;53.656;7.276;2023-04-01T22:40:58;8.27;;;2.70;;
28335;SDS011;15592;53.656;7.276;2023-04-01T22:43:37;10.30;;;2.88;;
28335;SDS011;15592;53.656;7.276;2023-04-01T22:49:08;10.13;;;3.08;;
28335;SDS011;15592;53.656;7.276;2023-04-01T22:51:43;7.47;;;3.10;;
28335;SDS011;15592;53.656;7.276;2023-04-01T22:56:51;8.13;;;2.67;;
28335;SDS011;15592;53.656;7.276;2023-04-01T22:59:44;8.00;;;3.00;;
28335;SDS011;15592;53.656;7.276;2023-04-01T23:02:32;8.93;;;2.88;;
28335;SDS011;15592;53.656;7.276;2023-04-01T23:05:03;10.80;;;3.05;;
28335;SDS011;15592;53.656;7.276;2023-04-01T23:07:42;10.48;;;2.55;;
28335;SDS011;15592;53.656;7.276;2023-04-01T23:12:47;6.65;;;2.80;;
28335;SDS011;15592;53.656;7.276;2023-04-01T23:15:16;5.80;;;2.40;;
28335;SDS011;15592;53.656;7.276;2023-04-01T23:26:29;6.40;;;2.33;;
28335;SDS011;15592;53.656;7.276;2023-04-01T23:31:25;7.50;;;2.72;;
28335;SDS011;15592;53.656;7.276;2023-04-01T23:33:57;9.70;;;3.20;;
28335;SDS011;15592;53.656;7.276;2023-04-01T23:36:25;7.07;;;2.40;;
28335;SDS011;15592;53.656;7.276;2023-04-01T23:38:52;6.75;;;2.40;;
28335;SDS011;15592;53.656;7.276;2023-04-01T23:41:23;7.80;;;2.78;;
28335;SDS011;15592;53.656;7.276;2023-04-01T23:44:11;7.20;;;3.10;;
28335;SDS011;15592;53.656;7.276;2023-04-01T23:46:39;8.73;;;2.92;;
28335;SDS011;15592;53.656;7.276;2023-04-01T23:49:11;5.72;;;2.50;;
28335;SDS011;15592;53.656;7.276;2023-04-01T23:51:52;11.25;;;2.53;;
28335;SDS011;15592;53.656;7.276;2023-04-01T23:57:32;11.93;;;3.30;;
